Terminal Aerodrome Forecast
Issued by NWS Louisville, KY

Home | Current Version | Previous Version | Text Only | Print | Product List | Glossary On
Versions: 1 2 3 4 5 6 7 8 9 10 11 12 13 14 15 16 17 18 19 20
000
FTUS43 KLMK 162324
TAFBWG
TAF
KBWG 162324Z 1700/1724 17007KT 6SM -SHRA SCT050 BKN100
     FM170500 18010KT 4SM -SHRA VCTS OVC025CB WS020/19048KT
     FM170800 19010KT 4SM -SHRA VCTS OVC015CB WS020/20047KT
     FM171100 20012KT 6SM BR VCSH OVC008
     FM171600 23011G18KT P6SM OVC015
     FM171900 25010G16KT P6SM SCT025 BKN060=

USA.gov is the U.S. government's official web portal to all federal, state and local government web resources and services.